Time;durP1;ratioP1;P1;durP2;ratioP2;P2;SDS_P1;SDS_P2;PMS_P1;PMS_P2;Temp;Humidity;BMP_temperature;BMP_pressure;BME280_temperature;BME280_humidity;BME280_pressure;Samples;Min_cycle;Max_cycle;Signal;HPM_P1;HPM_P2
2023/01/26 00:00:58;;;;;;;78.38;50.05;;;;;;;-2.76;100.00;101464.09;4990359;28;20029;-75
2023/01/26 00:03:24;;;;;;;82.63;49.03;;;;;;;-2.54;100.00;101500.53;5004090;28;20029;-74
2023/01/26 00:05:50;;;;;;;87.85;50.33;;;;;;;-2.66;100.00;101472.84;5004593;28;20073;-75
2023/01/26 00:08:15;;;;;;;83.88;49.25;;;;;;;-2.60;100.00;101488.41;4995929;28;20142;-75
2023/01/26 00:10:48;;;;;;;92.22;51.40;;;;;;;-2.54;100.00;101495.41;5012209;27;20034;-74
2023/01/26 00:13:16;;;;;;;83.22;50.67;;;;;;;-2.55;100.00;101493.66;4998954;28;20037;-75
2023/01/26 00:15:42;;;;;;;99.10;53.90;;;;;;;-2.62;100.00;101488.38;4992739;28;20040;-74
2023/01/26 00:18:08;;;;;;;89.03;51.95;;;;;;;-3.46;100.00;101340.09;4992640;28;20038;-74
2023/01/26 00:20:33;;;;;;;91.85;53.95;;;;;;;-2.68;100.00;101464.25;4991333;28;20046;-74
2023/01/26 00:22:58;;;;;;;96.82;54.70;;;;;;;-2.64;100.00;101466.06;4990908;28;20033;-75
2023/01/26 00:25:24;;;;;;;97.13;54.15;;;;;;;-2.66;100.00;101466.00;4991540;28;20845;-75
2023/01/26 00:27:49;;;;;;;96.30;54.28;;;;;;;-2.65;100.00;101456.59;4990825;28;20890;-74
2023/01/26 00:30:15;;;;;;;96.40;54.53;;;;;;;-2.89;100.00;101414.94;4995582;28;20042;-74
2023/01/26 00:32:40;;;;;;;90.22;53.00;;;;;;;-2.63;100.00;101449.75;4988183;28;20057;-74
2023/01/26 00:35:06;;;;;;;104.22;57.15;;;;;;;-2.58;100.00;101459.34;4993089;28;20037;-74
2023/01/26 00:37:32;;;;;;;105.35;58.85;;;;;;;-2.58;100.00;101458.47;4990309;28;20154;-74
2023/01/26 00:39:57;;;;;;;105.80;55.55;;;;;;;-2.63;100.00;101454.91;4994105;28;20022;-73
2023/01/26 00:42:23;;;;;;;98.45;55.05;;;;;;;-2.55;100.00;101463.66;5001413;28;20093;-73
2023/01/26 00:44:49;;;;;;;93.72;54.00;;;;;;;-2.55;100.00;101453.38;4994441;28;20038;-73
2023/01/26 00:47:17;;;;;;;98.75;56.80;;;;;;;-2.55;100.00;101443.09;4990545;28;20041;-74
2023/01/26 00:49:43;;;;;;;107.95;53.78;;;;;;;-2.54;100.00;101447.41;5022657;28;20030;-73
2023/01/26 00:52:10;;;;;;;98.97;55.42;;;;;;;-2.52;100.00;101438.00;4992244;28;20060;-73
2023/01/26 00:54:36;;;;;;;107.05;59.13;;;;;;;-2.57;100.00;101435.31;4989802;28;20018;-73
2023/01/26 00:57:01;;;;;;;99.78;56.28;;;;;;;-2.58;100.00;101417.31;4990550;28;20045;-73
2023/01/26 00:59:26;;;;;;;107.10;59.35;;;;;;;-2.53;100.00;101425.97;4991673;28;20065;-73
2023/01/26 01:01:53;;;;;;;105.65;57.63;;;;;;;-2.49;100.00;101432.03;4991349;28;20076;-73
2023/01/26 01:04:18;;;;;;;118.00;59.50;;;;;;;-2.50;100.00;101436.31;5003679;28;20475;-73
2023/01/26 01:06:44;;;;;;;100.65;58.50;;;;;;;-2.48;100.00;101419.22;5005621;28;20037;-73
2023/01/26 01:09:09;;;;;;;95.65;56.85;;;;;;;-2.41;100.00;101409.91;4994198;28;20025;-73
2023/01/26 01:11:35;;;;;;;123.03;60.65;;;;;;;-2.25;100.00;101417.94;4994164;28;20911;-73
2023/01/26 01:14:01;;;;;;;109.00;58.33;;;;;;;-2.17;100.00;101415.50;4989714;28;20034;-74
2023/01/26 01:16:27;;;;;;;100.47;56.38;;;;;;;-2.29;100.00;101394.66;4988405;28;20071;-73
2023/01/26 01:18:53;;;;;;;89.45;52.33;;;;;;;-2.30;100.00;101409.25;4991171;28;20022;-74
2023/01/26 01:21:19;;;;;;;111.80;57.65;;;;;;;-2.30;100.00;101409.25;4989639;28;20072;-74
2023/01/26 01:23:45;;;;;;;103.35;53.88;;;;;;;-2.33;100.00;101398.91;4990250;28;20030;-74
2023/01/26 01:26:11;;;;;;;105.00;54.67;;;;;;;-2.55;100.00;101358.19;4990857;28;20033;-74
2023/01/26 01:28:36;;;;;;;110.25;54.60;;;;;;;-2.34;100.00;101386.03;4992366;28;20057;-74
2023/01/26 01:31:06;;;;;;;111.75;57.53;;;;;;;-2.32;100.00;101392.91;4993216;28;20161;-73
2023/01/26 01:33:32;;;;;;;108.15;55.15;;;;;;;-2.27;100.00;101396.47;4997656;28;20194;-73
2023/01/26 01:35:58;;;;;;;99.80;54.20;;;;;;;-2.26;100.00;101394.72;4994145;28;20034;-73
2023/01/26 01:38:24;;;;;;;109.90;57.65;;;;;;;-2.32;100.00;101390.34;4994788;28;20196;-73
2023/01/26 01:40:50;;;;;;;101.50;56.47;;;;;;;-2.29;100.00;101390.41;4993530;28;20834;-73
2023/01/26 01:43:15;;;;;;;99.40;54.33;;;;;;;-2.28;100.00;101384.41;4990248;28;20045;-73
2023/01/26 01:45:44;;;;;;;119.82;57.55;;;;;;;-2.28;100.00;101375.81;5001249;28;20033;-73
2023/01/26 01:48:29;;;;;;;99.90;54.10;;;;;;;-2.28;100.00;101375.81;4988767;28;20025;-73
2023/01/26 01:50:58;;;;;;;105.95;56.60;;;;;;;-2.18;100.00;101388.88;4991773;28;20083;-73
2023/01/26 01:53:27;;;;;;;104.40;55.22;;;;;;;-2.31;100.00;101370.63;4991412;28;20030;-73
2023/01/26 01:55:59;;;;;;;107.70;53.95;;;;;;;-2.41;100.00;101349.03;5030278;28;20056;-73
2023/01/26 01:58:26;;;;;;;97.63;53.45;;;;;;;-2.25;100.00;101374.19;4994699;28;20032;-73
2023/01/26 02:00:52;;;;;;;104.50;56.30;;;;;;;-2.21;100.00;101381.13;4989638;28;20038;-73
2023/01/26 02:03:18;;;;;;;92.20;53.95;;;;;;;-2.20;100.00;101374.28;4988773;28;20042;-73
2023/01/26 02:06:06;;;;;;;101.30;53.35;;;;;;;-2.15;100.00;101388.94;5026406;28;20745;-73
2023/01/26 02:08:37;;;;;;;99.22;54.97;;;;;;;-2.20;100.00;101372.53;4993464;28;20571;-73
2023/01/26 02:11:08;;;;;;;105.43;53.00;;;;;;;-2.38;100.00;101333.63;4988099;28;20088;-73
2023/01/26 02:13:33;;;;;;;109.13;55.45;;;;;;;-2.13;100.00;101369.22;4989314;28;20034;-73
2023/01/26 02:15:59;;;;;;;103.00;54.40;;;;;;;-2.10;100.00;101366.72;4988472;28;20830;-73
2023/01/26 02:18:25;;;;;;;112.43;57.22;;;;;;;-2.14;100.00;101364.94;4988612;28;20076;-73
2023/01/26 02:21:02;;;;;;;100.78;55.90;;;;;;;-2.11;100.00;101377.84;4987963;28;20436;-73
2023/01/26 02:23:36;;;;;;;117.07;57.58;;;;;;;-2.06;100.00;101377.91;5015223;27;20033;-73
2023/01/26 02:26:08;;;;;;;105.90;52.85;;;;;;;-2.03;100.00;101377.13;4986385;28;20638;-73
2023/01/26 02:28:33;;;;;;;101.25;53.13;;;;;;;-2.06;100.00;101362.47;5024164;27;20033;-73
2023/01/26 02:30:59;;;;;;;105.20;56.13;;;;;;;-2.07;100.00;101371.06;5005354;28;20056;-73
2023/01/26 02:33:27;;;;;;;112.57;55.35;;;;;;;-2.07;100.00;101361.63;4995674;28;20098;-73
2023/01/26 02:35:53;;;;;;;117.55;55.72;;;;;;;-2.08;100.00;101359.88;4995031;28;20037;-73
2023/01/26 02:38:20;;;;;;;118.13;57.38;;;;;;;-2.17;100.00;101343.44;4993079;28;20820;-73
2023/01/26 02:40:54;;;;;;;101.57;51.88;;;;;;;-2.13;100.00;101340.91;4989844;28;20036;-73
2023/01/26 02:43:22;;;;;;;106.05;56.80;;;;;;;-2.44;100.00;101284.66;4990794;28;20033;-73
2023/01/26 02:45:47;;;;;;;103.40;54.78;;;;;;;-2.35;100.00;101289.94;4993685;28;20063;-74
2023/01/26 02:48:12;;;;;;;111.03;54.10;;;;;;;-2.06;100.00;101337.59;5003345;28;20038;-73
2023/01/26 02:50:38;;;;;;;98.65;55.08;;;;;;;-2.07;100.00;101333.31;4991156;27;20049;-73
2023/01/26 02:53:03;;;;;;;104.65;55.40;;;;;;;-2.02;100.00;101340.22;4994835;28;20561;-73
2023/01/26 02:55:29;;;;;;;100.50;54.33;;;;;;;-1.98;100.00;101354.88;5001052;28;20030;-73
2023/01/26 02:57:57;;;;;;;96.18;53.95;;;;;;;-1.97;100.00;101344.63;4997944;28;20128;-72
2023/01/26 03:00:25;;;;;;;100.03;52.85;;;;;;;-2.04;100.00;101334.19;5009328;28;20037;-73
2023/01/26 03:02:53;;;;;;;104.82;54.22;;;;;;;-1.97;100.00;101342.03;5005581;28;20056;-73
2023/01/26 03:05:19;;;;;;;107.88;55.25;;;;;;;-2.01;100.00;101342.81;4992067;28;20022;-73
2023/01/26 03:07:44;;;;;;;94.82;52.72;;;;;;;-2.16;100.00;101309.97;4993523;28;20138;-73
2023/01/26 03:10:11;;;;;;;111.65;55.95;;;;;;;-1.94;100.00;101346.38;4996256;28;20029;-73
2023/01/26 03:12:36;;;;;;;101.85;52.25;;;;;;;-2.01;100.00;101331.66;5001641;28;20037;-73
2023/01/26 03:17:46;;;;;;;90.57;50.90;;;;;;;-2.01;100.00;101329.97;4993580;28;20070;-73
2023/01/26 03:28:40;;;;;;;97.72;52.42;;;;;;;-2.06;100.00;101335.03;4981742;28;20050;-73
2023/01/26 03:31:06;;;;;;;106.30;53.67;;;;;;;-2.07;100.00;101335.88;4995623;28;20061;-74
2023/01/26 03:33:31;;;;;;;113.80;54.22;;;;;;;-2.08;100.00;101336.72;5011727;27;20052;-74
2023/01/26 03:35:57;;;;;;;114.63;53.85;;;;;;;-2.26;100.00;101297.81;4992238;28;20041;-73
2023/01/26 03:38:22;;;;;;;106.38;54.92;;;;;;;-1.99;100.00;101340.28;5004402;28;20034;-73
2023/01/26 03:57:11;;;;;;;98.78;51.78;;;;;;;-1.89;100.00;101335.28;4992302;28;20044;-73
2023/01/26 03:59:37;;;;;;;116.18;55.28;;;;;;;-1.90;100.00;101318.13;4993181;28;20403;-73
2023/01/26 04:10:19;;;;;;;;;;;;;;;-1.78;100.00;101327.72;5016398;27;20433;-74
2023/01/26 04:23:40;;;;;;;115.05;55.67;;;;;;;-1.77;100.00;101319.16;4989528;28;20041;-73
2023/01/26 04:26:06;;;;;;;112.75;53.22;;;;;;;-1.71;100.00;101319.25;4988646;28;20038;-73
2023/01/26 04:28:31;;;;;;;127.60;56.70;;;;;;;-1.65;100.00;101324.47;4985253;28;20822;-73
2023/01/26 04:30:57;;;;;;;130.93;57.63;;;;;;;-1.68;100.00;101315.00;4990285;28;20034;-73
2023/01/26 04:33:22;;;;;;;116.03;56.67;;;;;;;-1.70;100.00;101313.25;4990354;28;20092;-73
2023/01/26 04:35:47;;;;;;;124.57;57.05;;;;;;;-1.73;100.00;101305.47;4991287;28;20103;-73
2023/01/26 04:38:13;;;;;;;125.15;58.05;;;;;;;-1.71;100.00;101299.50;5000189;28;20033;-73
2023/01/26 04:40:38;;;;;;;116.63;56.70;;;;;;;-1.65;100.00;101298.72;4995108;28;20037;-73
2023/01/26 04:43:03;;;;;;;114.80;54.70;;;;;;;-1.76;100.00;101274.53;4991645;28;20098;-73
2023/01/26 04:45:29;;;;;;;111.68;55.67;;;;;;;-1.68;100.00;101293.53;4993126;28;20502;-73
2023/01/26 04:47:54;;;;;;;132.82;58.50;;;;;;;-1.67;100.00;101301.28;5001217;28;20021;-73
2023/01/26 04:50:20;;;;;;;121.40;58.40;;;;;;;-1.66;100.00;101308.19;5003416;28;20859;-73
2023/01/26 04:52:45;;;;;;;124.85;58.78;;;;;;;-1.64;100.00;101308.19;4992614;28;20038;-73
2023/01/26 04:55:10;;;;;;;114.30;54.40;;;;;;;-1.71;100.00;101303.78;4998018;28;20030;-73
2023/01/26 04:57:36;;;;;;;122.20;56.20;;;;;;;-1.64;100.00;101308.19;5020975;28;20050;-73
2023/01/26 05:00:01;;;;;;;118.38;55.72;;;;;;;-1.63;100.00;101309.91;4991386;28;20033;-73
2023/01/26 05:02:27;;;;;;;125.53;56.72;;;;;;;-1.67;100.00;101303.88;4993543;28;20062;-73
2023/01/26 05:04:53;;;;;;;126.45;58.40;;;;;;;-1.84;100.00;101263.25;4991457;28;20059;-73
2023/01/26 05:07:18;;;;;;;131.02;57.28;;;;;;;-1.67;100.00;101303.88;5002244;28;20045;-73
2023/01/26 05:09:43;;;;;;;125.75;53.20;;;;;;;-1.63;100.00;101304.78;4993382;28;20037;-72
2023/01/26 05:14:53;;;;;;;125.88;54.53;;;;;;;-1.49;100.00;101312.69;4995020;28;20041;-73
2023/01/26 05:17:18;;;;;;;123.18;54.35;;;;;;;-1.51;100.00;101307.50;5005944;28;20029;-73
2023/01/26 05:19:44;;;;;;;124.65;57.03;;;;;;;-1.59;100.00;101293.66;4993688;28;20040;-73
2023/01/26 05:22:09;;;;;;;117.15;52.17;;;;;;;-1.52;100.00;101294.63;4990822;28;20034;-73
2023/01/26 05:24:34;;;;;;;108.07;50.65;;;;;;;-1.49;100.00;101299.81;4990419;28;20034;-73
2023/01/26 05:29:44;;;;;;;118.45;55.00;;;;;;;-1.41;100.00;101298.16;4992429;28;20037;-73
2023/01/26 05:32:09;;;;;;;106.70;50.33;;;;;;;-1.39;100.00;101287.06;5003712;28;20057;-73
2023/01/26 05:34:34;;;;;;;99.90;50.53;;;;;;;-1.30;100.00;101305.19;4995014;28;20029;-73
2023/01/26 05:37:00;;;;;;;112.53;50.90;;;;;;;-1.36;100.00;101297.41;5001868;28;20030;-73
2023/01/26 05:39:25;;;;;;;103.35;48.83;;;;;;;-1.35;100.00;101304.25;5005520;28;20043;-73
2023/01/26 05:41:51;;;;;;;104.88;49.75;;;;;;;-1.36;100.00;101302.56;5004076;28;20034;-73
2023/01/26 05:44:16;;;;;;;107.70;52.15;;;;;;;-1.34;100.00;101305.13;4999667;28;20030;-72
2023/01/26 05:46:41;;;;;;;100.65;49.78;;;;;;;-1.35;100.00;101299.09;4998515;28;20050;-73
2023/01/26 05:49:07;;;;;;;102.63;49.72;;;;;;;-1.31;100.00;101300.00;4992693;28;20030;-72
2023/01/26 05:51:32;;;;;;;117.43;48.88;;;;;;;-1.26;100.00;101299.25;4992579;28;20041;-73
2023/01/26 05:53:58;;;;;;;106.00;50.17;;;;;;;-1.22;100.00;101301.03;4992005;28;20169;-73
2023/01/26 05:56:23;;;;;;;107.63;50.67;;;;;;;-1.15;100.00;101310.53;4996823;28;20025;-72
2023/01/26 05:58:48;;;;;;;98.10;45.17;;;;;;;-1.29;100.00;101288.91;4995595;28;20427;-72
2023/01/26 06:01:14;;;;;;;102.05;47.95;;;;;;;-1.15;100.00;101307.94;4996919;28;20038;-72
2023/01/26 06:03:39;;;;;;;89.82;44.38;;;;;;;-1.16;100.00;101298.50;5008519;28;20037;-72
2023/01/26 06:06:05;;;;;;;105.10;48.83;;;;;;;-1.11;100.00;101309.72;4997550;28;20845;-73
2023/01/26 06:08:30;;;;;;;99.50;44.72;;;;;;;-1.15;100.00;101307.94;4997095;28;20086;-72
2023/01/26 06:11:00;;;;;;;82.20;40.10;;;;;;;-1.32;100.00;101285.41;4995174;28;20040;-72
2023/01/26 06:13:25;;;;;;;93.63;43.80;;;;;;;-1.17;100.00;101309.66;5004318;28;20826;-72
2023/01/26 06:15:50;;;;;;;82.60;41.60;;;;;;;-1.18;100.00;101312.19;4997181;28;20045;-72
2023/01/26 06:18:16;;;;;;;77.65;39.50;;;;;;;-1.48;100.00;101270.59;5014095;28;20268;-73
2023/01/26 06:20:41;;;;;;;76.50;40.22;;;;;;;-1.15;100.00;101318.25;5002116;28;20072;-72
2023/01/26 06:23:10;;;;;;;80.55;40.50;;;;;;;-1.14;100.00;101329.44;5001413;27;20661;-72
2023/01/26 06:25:38;;;;;;;77.40;40.03;;;;;;;-1.28;100.00;101305.19;4997068;28;20064;-72
2023/01/26 06:28:04;;;;;;;76.95;39.83;;;;;;;-1.26;100.00;101314.72;4997498;28;20083;-73
2023/01/26 06:30:29;;;;;;;81.25;39.85;;;;;;;-1.17;100.00;101327.69;5001242;28;20033;-73
2023/01/26 06:32:54;;;;;;;84.03;38.75;;;;;;;-1.15;100.00;101328.56;5006774;28;20049;-72
2023/01/26 06:35:20;;;;;;;76.68;39.70;;;;;;;-1.18;100.00;101323.38;5000842;28;20033;-72
2023/01/26 06:37:49;;;;;;;78.43;39.67;;;;;;;-1.17;100.00;101335.44;4999365;28;20030;-73
2023/01/26 06:40:15;;;;;;;71.75;36.20;;;;;;;-1.21;100.00;101323.34;5002775;28;20042;-72
2023/01/26 06:42:49;;;;;;;74.32;38.15;;;;;;;-1.13;100.00;101332.06;5008530;28;20079;-72
2023/01/26 06:45:15;;;;;;;83.78;42.72;;;;;;;-1.09;100.00;101339.00;4997480;28;20030;-72
2023/01/26 06:47:48;;;;;;;79.88;39.88;;;;;;;-1.11;100.00;101334.63;5000132;28;20034;-72
2023/01/26 06:50:15;;;;;;;78.22;38.60;;;;;;;-1.08;100.00;101339.81;5000987;28;20089;-72
2023/01/26 06:52:43;;;;;;;75.15;35.53;;;;;;;-1.13;100.00;101331.19;4999168;28;20032;-73
2023/01/26 06:55:36;;;;;;;71.10;37.53;;;;;;;-1.09;100.00;101336.41;5005277;28;20531;-72
2023/01/26 06:58:01;;;;;;;69.50;35.28;;;;;;;-1.20;100.00;101335.41;5010645;27;20139;-72
2023/01/26 07:00:27;;;;;;;73.40;37.10;;;;;;;-1.23;100.00;101330.22;4997215;28;20061;-72
2023/01/26 07:02:52;;;;;;;69.63;35.42;;;;;;;-1.22;100.00;101331.94;5037646;27;20375;-72
2023/01/26 07:05:17;;;;;;;70.82;34.72;;;;;;;-1.21;100.00;101325.94;4995539;28;20045;-72
2023/01/26 07:07:43;;;;;;;78.38;37.75;;;;;;;-1.15;100.00;101335.47;5003627;28;20042;-72
2023/01/26 07:10:09;;;;;;;72.55;36.75;;;;;;;-1.37;100.00;101300.81;5010969;28;20086;-72
2023/01/26 07:12:39;;;;;;;76.30;35.55;;;;;;;-1.66;100.00;101241.19;5010216;28;20092;-72
2023/01/26 07:15:05;;;;;;;70.88;37.40;;;;;;;-1.12;100.00;101331.22;5010440;28;20472;-69
2023/01/26 07:17:30;;;;;;;71.15;37.25;;;;;;;-1.14;100.00;101326.88;5014997;28;20078;-70
2023/01/26 07:19:56;;;;;;;74.90;38.60;;;;;;;-1.17;100.00;101325.13;5022691;28;20037;-69
2023/01/26 07:22:21;;;;;;;70.00;38.35;;;;;;;-1.17;100.00;101330.28;5019076;28;20034;-70
2023/01/26 07:24:47;;;;;;;71.95;35.20;;;;;;;-1.19;100.00;101320.81;5011727;28;20043;-70
2023/01/26 07:27:12;;;;;;;72.97;38.70;;;;;;;-1.19;100.00;101336.28;5016194;28;20033;-70
2023/01/26 07:29:37;;;;;;;72.03;35.67;;;;;;;-1.20;100.00;101334.53;5011039;28;20030;-71
2023/01/26 07:32:03;;;;;;;73.68;37.65;;;;;;;-1.18;100.00;101337.97;5012847;28;20480;-70
2023/01/26 07:34:28;;;;;;;67.45;37.53;;;;;;;-1.17;100.00;101339.72;5012515;28;20368;-70
2023/01/26 07:36:53;;;;;;;73.97;35.72;;;;;;;-1.16;100.00;101332.03;5013777;28;20040;-70
2023/01/26 07:39:19;;;;;;;74.63;37.70;;;;;;;-1.12;100.00;101331.22;5011390;28;20535;-76
2023/01/26 07:41:44;;;;;;;72.18;35.42;;;;;;;-1.12;100.00;101333.78;5011196;28;20025;-71
2023/01/26 07:44:10;;;;;;;70.80;34.50;;;;;;;-1.12;100.00;101333.78;5009603;28;20041;-71
2023/01/26 07:46:35;;;;;;;79.38;36.22;;;;;;;-1.06;100.00;101341.59;5010755;28;20069;-71
2023/01/26 07:49:01;;;;;;;80.65;38.72;;;;;;;-1.05;100.00;101347.63;5024296;28;20476;-69
2023/01/26 07:51:26;;;;;;;77.30;38.25;;;;;;;-1.10;100.00;101347.56;5009854;28;20176;-69
2023/01/26 07:53:53;;;;;;;78.25;37.97;;;;;;;-1.34;100.00;101303.44;5010461;28;20120;-71
2023/01/26 07:56:19;;;;;;;76.40;38.30;;;;;;;-1.09;100.00;101348.44;5018147;28;20036;-71
2023/01/26 07:58:48;;;;;;;68.85;35.17;;;;;;;-1.05;100.00;101345.88;5013017;28;20033;-70
2023/01/26 08:01:14;;;;;;;61.05;33.85;;;;;;;-1.05;100.00;101351.03;5016078;27;20104;-69
2023/01/26 08:03:40;;;;;;;72.43;36.53;;;;;;;-1.00;100.00;101361.41;5010823;28;20166;-73
2023/01/26 08:06:07;;;;;;;65.40;34.13;;;;;;;-1.07;100.00;101355.31;4986102;28;20194;-73
2023/01/26 08:08:33;;;;;;;72.90;34.67;;;;;;;-1.62;100.00;101262.69;4976620;28;20856;-73
2023/01/26 08:10:59;;;;;;;72.38;34.20;;;;;;;-1.04;100.00;101355.38;4977294;28;20026;-71
2023/01/26 08:13:26;;;;;;;73.82;37.40;;;;;;;-1.06;100.00;101344.19;4979212;27;20025;-73
2023/01/26 08:15:52;;;;;;;69.05;36.25;;;;;;;-0.95;100.00;101361.50;5002692;27;20371;-71
2023/01/26 08:18:17;;;;;;;78.32;34.70;;;;;;;-0.94;100.00;101360.63;4983377;28;20587;-71
2023/01/26 08:20:49;;;;;;;64.55;34.70;;;;;;;-0.91;100.00;101363.25;4976116;28;20068;-72
2023/01/26 08:23:15;;;;;;;68.40;34.95;;;;;;;-0.88;100.00;101364.13;4988729;27;20140;-71
2023/01/26 08:25:40;;;;;;;74.90;37.30;;;;;;;-0.85;100.00;101363.34;5017613;27;20861;-71
2023/01/26 08:28:06;;;;;;;66.75;33.60;;;;;;;-0.87;100.00;101367.59;4986184;27;20024;-71
2023/01/26 08:30:31;;;;;;;68.85;36.45;;;;;;;-0.81;100.00;101375.41;4974804;28;20833;-71
2023/01/26 08:32:56;;;;;;;71.13;34.95;;;;;;;-0.84;100.00;101370.19;4975236;27;20574;-71
2023/01/26 08:35:22;;;;;;;77.78;35.53;;;;;;;-0.89;100.00;101361.56;4981233;28;20026;-71
2023/01/26 08:37:47;;;;;;;71.82;38.30;;;;;;;-0.81;100.00;101385.75;4981285;28;20029;-71
2023/01/26 08:40:13;;;;;;;85.57;38.60;;;;;;;-0.82;100.00;101382.28;4974947;28;20030;-71
2023/01/26 08:42:38;;;;;;;74.25;37.40;;;;;;;-0.84;100.00;101383.09;4973880;28;20025;-71
2023/01/26 08:45:04;;;;;;;79.78;38.50;;;;;;;-0.86;100.00;101371.91;4973577;28;20036;-71
2023/01/26 08:47:29;;;;;;;77.72;42.30;;;;;;;-0.76;100.00;101384.06;4975549;27;20025;-71
2023/01/26 08:49:55;;;;;;;81.20;38.67;;;;;;;-0.71;100.00;101380.69;4982291;28;20857;-71
2023/01/26 08:52:20;;;;;;;79.55;40.10;;;;;;;-0.71;100.00;101383.25;4980544;28;20894;-71
2023/01/26 08:54:46;;;;;;;67.43;35.38;;;;;;;-0.67;100.00;101386.72;4971804;28;20049;-71
2023/01/26 08:57:11;;;;;;;70.95;33.78;;;;;;;-0.76;100.00;101368.59;4995596;27;20122;-71
2023/01/26 08:59:36;;;;;;;79.95;36.35;;;;;;;-0.67;100.00;101391.91;4976516;28;20842;-71
2023/01/26 09:02:02;;;;;;;85.43;36.72;;;;;;;-0.64;100.00;101397.09;5003396;27;20075;-70
2023/01/26 09:04:27;;;;;;;69.82;35.97;;;;;;;-0.66;100.00;101391.94;4969843;27;20830;-71
2023/01/26 09:06:53;;;;;;;80.40;37.92;;;;;;;-0.58;100.00;101404.91;4974410;27;20896;-70
2023/01/26 09:09:18;;;;;;;73.50;36.85;;;;;;;-0.60;100.00;101409.19;4979379;28;20058;-71
2023/01/26 09:11:44;;;;;;;70.95;36.38;;;;;;;-0.60;100.00;101401.44;4976891;27;20881;-72
2023/01/26 09:14:09;;;;;;;62.63;33.53;;;;;;;-0.61;100.00;101407.47;4970636;28;20084;-71
2023/01/26 09:16:35;;;;;;;78.65;35.03;;;;;;;-0.68;100.00;101385.03;5001218;28;20018;-72
2023/01/26 09:19:00;;;;;;;80.15;36.95;;;;;;;-0.61;100.00;101402.31;4977150;28;20060;-72
2023/01/26 09:21:25;;;;;;;68.80;34.60;;;;;;;-0.85;100.00;101371.06;4969974;28;20802;-72
2023/01/26 09:23:51;;;;;;;71.68;35.00;;;;;;;-0.78;100.00;101386.63;4989743;27;20080;-72
2023/01/26 09:26:16;;;;;;;71.07;36.05;;;;;;;-0.63;100.00;101401.41;4969118;28;20249;-72
2023/01/26 09:28:42;;;;;;;78.32;35.30;;;;;;;-1.15;100.00;101307.09;4971023;28;20102;-72
2023/01/26 09:31:11;;;;;;;67.65;36.45;;;;;;;-0.58;100.00;101400.63;4972367;28;20974;-72
2023/01/26 09:33:37;;;;;;;73.45;36.33;;;;;;;-0.64;100.00;101391.94;4969859;28;20094;-72
2023/01/26 09:36:07;;;;;;;74.18;35.47;;;;;;;-0.92;100.00;101340.88;4971487;28;20025;-72
2023/01/26 09:38:33;;;;;;;74.40;36.00;;;;;;;-0.51;100.00;101404.16;4970036;28;20034;-71
2023/01/26 09:41:04;;;;;;;68.47;35.15;;;;;;;-0.47;100.00;101403.31;4980892;28;20034;-71
2023/01/26 09:43:42;;;;;;;75.47;36.70;;;;;;;-0.42;100.00;101406.81;4972260;28;20892;-70
2023/01/26 09:46:42;;;;;;;59.20;32.83;;;;;;;-0.47;100.00;101398.13;4970629;28;20056;-72
2023/01/26 09:49:27;;;;;;;67.47;32.80;;;;;;;-0.39;100.00;101412.00;4975172;28;20045;-72
2023/01/26 09:51:59;;;;;;;72.10;33.72;;;;;;;-0.39;100.00;101406.84;4974290;28;20025;-72
2023/01/26 09:54:38;;;;;;;69.45;33.83;;;;;;;-0.39;100.00;101406.84;4955799;28;20045;-72
2023/01/26 09:57:13;;;;;;;72.80;36.35;;;;;;;-0.38;100.00;101408.59;4971349;28;20030;-72
2023/01/26 10:00:06;;;;;;;67.35;34.17;;;;;;;-0.40;100.00;101409.41;4981309;28;20025;-72
2023/01/26 10:02:48;;;;;;;70.18;33.80;;;;;;;-0.37;100.00;101409.44;4980264;28;20041;-72
2023/01/26 10:05:20;;;;;;;74.95;33.75;;;;;;;-0.44;100.00;101402.50;4971085;28;20040;-72
2023/01/26 10:07:46;;;;;;;74.60;32.47;;;;;;;-0.45;100.00;101401.63;4971138;28;21602;-72
2023/01/26 10:10:19;;;;;;;61.70;30.58;;;;;;;-0.34;100.00;101409.47;4972896;28;20048;-71
2023/01/26 10:12:47;;;;;;;63.13;29.75;;;;;;;-0.28;100.00;101415.56;4991692;27;20044;-71
2023/01/26 10:15:38;;;;;;;51.17;28.70;;;;;;;-0.36;100.00;101408.56;5004431;27;20113;-72
2023/01/26 10:18:07;;;;;;;52.72;28.58;;;;;;;-0.39;100.00;101396.53;4971866;28;20029;-71
2023/01/26 10:20:39;;;;;;;57.65;28.13;;;;;;;-0.34;100.00;101391.41;4998278;28;20078;-72
2023/01/26 10:23:17;;;;;;;54.88;28.35;;;;;;;-0.29;100.00;101387.13;4971648;28;20874;-72
2023/01/26 10:25:45;;;;;;;45.13;25.25;;;;;;;-0.26;100.00;101392.34;4976204;28;20026;-72
2023/01/26 10:28:33;;;;;;;53.38;26.13;;;;;;;-0.15;100.00;101395.88;4984776;28;20061;-73
2023/01/26 10:31:01;;;;;;;47.20;22.42;;;;;;;-0.17;100.00;101392.44;4989788;28;20050;-72
2023/01/26 10:33:31;;;;;;;49.08;24.50;;;;;;;-0.23;100.00;101380.31;4981484;28;20188;-72
2023/01/26 10:35:57;;;;;;;49.92;24.23;;;;;;;-0.21;100.00;101381.22;4973124;28;20022;-71
2023/01/26 10:38:32;;;;;;;48.67;24.45;;;;;;;-0.04;100.00;101392.56;4973033;28;20817;-72
2023/01/26 10:41:19;;;;;;;40.28;22.77;;;;;;;-0.02;100.00;101388.25;4972479;28;20059;-73
2023/01/26 10:43:52;;;;;;;39.35;21.45;;;;;;;0.06;100.00;101396.09;4969509;28;20040;-73
2023/01/26 10:46:38;;;;;;;41.40;23.35;;;;;;;0.05;100.00;101394.34;4967160;28;20913;-72
2023/01/26 10:49:14;;;;;;;41.83;21.65;;;;;;;-0.01;100.00;101382.25;4969470;27;20881;-73
2023/01/26 10:51:46;;;;;;;43.60;22.52;;;;;;;-0.01;100.00;101381.38;4981152;27;20121;-73
2023/01/26 10:54:20;;;;;;;44.00;22.20;;;;;;;0.16;100.00;101391.84;4970235;28;20029;-73
2023/01/26 10:56:48;;;;;;;40.35;23.00;;;;;;;0.25;100.00;101391.91;4971958;28;20129;-73
2023/01/26 10:59:39;;;;;;;38.13;21.42;;;;;;;0.29;100.00;101401.44;4971321;28;20037;-73
2023/01/26 11:02:11;;;;;;;35.70;20.30;;;;;;;0.32;100.00;101401.44;4973089;28;20026;-72
2023/01/26 11:04:37;;;;;;;32.47;19.35;;;;;;;0.29;100.00;101393.69;4969131;28;20137;-73
2023/01/26 11:07:39;;;;;;;36.97;19.92;;;;;;;0.43;100.00;101397.22;4984089;27;20129;-74
2023/01/26 11:10:33;;;;;;;32.85;19.33;;;;;;;0.51;100.00;101403.31;4987249;28;20029;-74
2023/01/26 11:13:25;;;;;;;34.67;19.80;;;;;;;0.50;100.00;101393.84;4978724;27;20140;-74
2023/01/26 11:16:05;;;;;;;31.15;19.40;;;;;;;0.46;100.00;101405.00;4979029;27;20101;-74
2023/01/26 11:18:41;;;;;;;34.75;19.80;;;;;;;0.42;100.00;101395.50;4977426;28;20043;-74
2023/01/26 11:21:16;;;;;;;36.33;18.92;;;;;;;0.35;100.00;101393.72;4988127;27;20023;-74
2023/01/26 11:24:20;;;;;;;32.20;19.08;;;;;;;0.27;100.00;101374.72;4979502;28;20033;-74
2023/01/26 11:27:27;;;;;;;30.92;19.75;;;;;;;0.31;100.00;101382.50;5000918;28;20052;-75
2023/01/26 11:30:28;;;;;;;35.88;19.10;;;;;;;0.33;100.00;101382.50;5004976;27;20040;-74
2023/01/26 11:32:54;;;;;;;35.67;20.08;;;;;;;0.35;100.00;101384.25;4973469;27;20030;-75
2023/01/26 11:35:31;;;;;;;40.50;20.65;;;;;;;0.21;100.00;101362.59;4972669;28;20987;-75
2023/01/26 11:37:56;;;;;;;34.72;19.55;;;;;;;0.32;100.00;101379.06;4978009;28;20033;-75
2023/01/26 11:40:51;;;;;;;43.35;22.25;;;;;;;0.32;100.00;101383.38;4979144;28;20777;-75
2023/01/26 11:43:47;;;;;;;33.25;19.42;;;;;;;0.33;100.00;101380.81;5000715;28;20176;-75
2023/01/26 11:46:48;;;;;;;37.70;20.67;;;;;;;0.19;100.00;101350.53;4979790;28;20047;-74
2023/01/26 11:49:35;;;;;;;39.10;20.98;;;;;;;0.33;100.00;101370.47;4985951;28;20049;-75
2023/01/26 11:52:31;;;;;;;46.78;19.13;;;;;;;0.44;100.00;101373.13;4974545;28;20819;-75
2023/01/26 11:54:57;;;;;;;39.58;20.75;;;;;;;0.48;100.00;101369.69;4981344;28;20084;-74
2023/01/26 11:57:32;;;;;;;37.20;21.63;;;;;;;0.40;100.00;101351.56;4982005;28;20971;-74
2023/01/26 12:00:04;;;;;;;46.95;21.40;;;;;;;0.52;100.00;101351.63;4982568;28;20156;-75